sensor_id;sensor_type;location;lat;lon;timestamp;pressure;altitude;pressure_sealevel;temperature;humidity
56414;BME280;42318;48.452;19.526;2022-09-09T00:16:39;97940.75;;;23.10;56.93
56414;BME280;42318;48.452;19.526;2022-09-09T00:24:26;97936.69;;;23.08;56.94
56414;BME280;42318;48.452;19.526;2022-09-09T00:32:04;97941.91;;;23.04;57.25
56414;BME280;42318;48.452;19.526;2022-09-09T00:39:42;97954.75;;;23.04;57.08
56414;BME280;42318;48.452;19.526;2022-09-09T00:55:23;97939.25;;;22.94;57.08
56414;BME280;42318;48.452;19.526;2022-09-09T01:11:12;97967.91;;;22.97;57.28
56414;BME280;42318;48.452;19.526;2022-09-09T01:18:50;97962.72;;;22.95;56.95
56414;BME280;42318;48.452;19.526;2022-09-09T01:34:10;97960.91;;;22.85;57.30
56414;BME280;42318;48.452;19.526;2022-09-09T01:41:41;97964.16;;;22.87;57.13
56414;BME280;42318;48.452;19.526;2022-09-09T01:49:14;97974.81;;;22.89;57.18
56414;BME280;42318;48.452;19.526;2022-09-09T02:04:54;97994.22;;;22.87;57.19
56414;BME280;42318;48.452;19.526;2022-09-09T02:12:25;97994.22;;;22.87;56.97
56414;BME280;42318;48.452;19.526;2022-09-09T02:20:06;97982.81;;;22.80;57.18
56414;BME280;42318;48.452;19.526;2022-09-09T02:27:40;97993.16;;;22.83;57.33
56414;BME280;42318;48.452;19.526;2022-09-09T02:35:15;97995.09;;;22.83;57.10
56414;BME280;42318;48.452;19.526;2022-09-09T02:42:48;97997.53;;;22.79;57.12
56414;BME280;42318;48.452;19.526;2022-09-09T02:50:24;98003.81;;;22.80;57.24
56414;BME280;42318;48.452;19.526;2022-09-09T02:57:57;97999.44;;;22.79;57.29
56414;BME280;42318;48.452;19.526;2022-09-09T03:05:29;98015.31;;;22.77;57.19
56414;BME280;42318;48.452;19.526;2022-09-09T03:12:59;98022.16;;;22.74;57.03
56414;BME280;42318;48.452;19.526;2022-09-09T03:20:31;98039.66;;;22.73;57.39
56414;BME280;42318;48.452;19.526;2022-09-09T03:28:02;98051.66;;;22.72;57.34
56414;BME280;42318;48.452;19.526;2022-09-09T03:35:32;98048.94;;;22.72;57.37
56414;BME280;42318;48.452;19.526;2022-09-09T03:43:03;98038.59;;;22.69;57.50
56414;BME280;42318;48.452;19.526;2022-09-09T03:50:34;98039.69;;;22.68;57.68
56414;BME280;42318;48.452;19.526;2022-09-09T03:58:04;98029.88;;;22.67;57.43
56414;BME280;42318;48.452;19.526;2022-09-09T04:05:35;98043.50;;;22.67;57.51
56414;BME280;42318;48.452;19.526;2022-09-09T06:26:33;98070.47;;;22.35;57.88
56414;BME280;42318;48.452;19.526;2022-09-09T06:34:06;98072.66;;;22.33;58.10
56414;BME280;42318;48.452;19.526;2022-09-09T06:41:38;98067.44;;;22.36;58.00
56414;BME280;42318;48.452;19.526;2022-09-09T06:49:09;98061.19;;;22.31;58.25
56414;BME280;42318;48.452;19.526;2022-09-09T06:56:40;98079.44;;;22.40;58.10
56414;BME280;42318;48.452;19.526;2022-09-09T07:04:13;98084.59;;;22.42;57.94
56414;BME280;42318;48.452;19.526;2022-09-09T07:11:50;98078.06;;;22.43;57.56
56414;BME280;42318;48.452;19.526;2022-09-09T07:19:24;98090.59;;;22.44;57.51
56414;BME280;42318;48.452;19.526;2022-09-09T07:26:54;98100.41;;;22.45;57.54
56414;BME280;42318;48.452;19.526;2022-09-09T07:34:25;98103.69;;;22.47;57.62
56414;BME280;42318;48.452;19.526;2022-09-09T07:41:56;98107.47;;;22.51;57.96
56414;BME280;42318;48.452;19.526;2022-09-09T07:49:28;98120.03;;;22.57;58.60
56414;BME280;42318;48.452;19.526;2022-09-09T07:56:59;98138.84;;;22.64;58.46
56414;BME280;42318;48.452;19.526;2022-09-09T08:04:30;98140.72;;;22.68;58.65
56414;BME280;42318;48.452;19.526;2022-09-09T08:12:01;98145.09;;;22.69;59.08
56414;BME280;42318;48.452;19.526;2022-09-09T08:19:32;98127.84;;;22.74;59.94
56414;BME280;42318;48.452;19.526;2022-09-09T08:27:06;98122.13;;;22.75;60.14
56414;BME280;42318;48.452;19.526;2022-09-09T08:34:37;98111.72;;;22.77;59.44
56414;BME280;42318;48.452;19.526;2022-09-09T08:57:38;98116.66;;;22.80;58.99
56414;BME280;42318;48.452;19.526;2022-09-09T09:05:19;98109.81;;;22.83;59.20
56414;BME280;42318;48.452;19.526;2022-09-09T09:12:54;98103.47;;;22.87;58.89
56414;BME280;42318;48.452;19.526;2022-09-09T09:28:16;98099.09;;;22.92;58.57
56414;BME280;42318;48.452;19.526;2022-09-09T09:35:51;98090.59;;;22.93;58.71
56414;BME280;42318;48.452;19.526;2022-09-09T09:43:25;98099.63;;;22.94;58.90
56414;BME280;42318;48.452;19.526;2022-09-09T09:51:00;98100.44;;;22.94;58.72
56414;BME280;42318;48.452;19.526;2022-09-09T10:06:16;98123.63;;;23.02;58.50
56414;BME280;42318;48.452;19.526;2022-09-09T10:13:56;98117.59;;;23.05;58.38
56414;BME280;42318;48.452;19.526;2022-09-09T10:37:41;98112.13;;;23.05;58.47
56414;BME280;42318;48.452;19.526;2022-09-09T10:45:18;98116.22;;;23.07;58.62
56414;BME280;42318;48.452;19.526;2022-09-09T11:00:51;98117.03;;;23.08;58.66
56414;BME280;42318;48.452;19.526;2022-09-09T11:08:29;98094.09;;;23.04;58.74
56414;BME280;42318;48.452;19.526;2022-09-09T11:23:48;98098.13;;;23.11;58.90
56414;BME280;42318;48.452;19.526;2022-09-09T11:31:44;98103.56;;;23.16;58.78
56414;BME280;42318;48.452;19.526;2022-09-09T11:46:50;98102.75;;;23.16;58.92
56414;BME280;42318;48.452;19.526;2022-09-09T11:54:31;98094.78;;;23.19;59.52
56414;BME280;42318;48.452;19.526;2022-09-09T12:02:23;98097.25;;;23.21;59.73
56414;BME280;42318;48.452;19.526;2022-09-09T12:09:56;98090.38;;;23.24;59.29
56414;BME280;42318;48.452;19.526;2022-09-09T12:17:30;98093.41;;;23.22;59.21
56414;BME280;42318;48.452;19.526;2022-09-09T12:32:44;98065.78;;;23.24;58.93
56414;BME280;42318;48.452;19.526;2022-09-09T12:40:25;98057.53;;;23.29;58.55
56414;BME280;42318;48.452;19.526;2022-09-09T12:48:09;98050.63;;;23.36;56.84
56414;BME280;42318;48.452;19.526;2022-09-09T12:56:02;98045.72;;;23.33;56.67
56414;BME280;42318;48.452;19.526;2022-09-09T13:03:42;98040.78;;;23.35;56.37
56414;BME280;42318;48.452;19.526;2022-09-09T13:11:17;98039.69;;;23.36;55.36
56414;BME280;42318;48.452;19.526;2022-09-09T13:18:49;98032.31;;;23.37;55.51
56414;BME280;42318;48.452;19.526;2022-09-09T13:26:26;98017.81;;;23.36;55.18
56414;BME280;42318;48.452;19.526;2022-09-09T13:33:57;97992.75;;;23.29;55.56
56414;BME280;42318;48.452;19.526;2022-09-09T13:49:03;97993.34;;;23.55;55.31
56414;BME280;42318;48.452;19.526;2022-09-09T13:56:48;97983.44;;;23.59;55.26
56414;BME280;42318;48.452;19.526;2022-09-09T14:04:20;97992.34;;;23.70;55.01
56414;BME280;42318;48.452;19.526;2022-09-09T14:11:53;97996.63;;;23.76;54.94
56414;BME280;42318;48.452;19.526;2022-09-09T14:19:25;98014.63;;;23.82;54.62
56414;BME280;42318;48.452;19.526;2022-09-09T14:26:56;97997.09;;;23.83;54.87
56414;BME280;42318;48.452;19.526;2022-09-09T14:34:27;97998.50;;;23.80;54.58
56414;BME280;42318;48.452;19.526;2022-09-09T14:41:58;98016.38;;;23.73;54.95
56414;BME280;42318;48.452;19.526;2022-09-09T14:49:28;98015.31;;;23.69;55.28
56414;BME280;42318;48.452;19.526;2022-09-09T14:56:59;98020.56;;;23.65;55.27
56414;BME280;42318;48.452;19.526;2022-09-09T15:04:30;98011.59;;;23.60;55.43
56414;BME280;42318;48.452;19.526;2022-09-09T15:12:01;98000.16;;;23.58;55.43
56414;BME280;42318;48.452;19.526;2022-09-09T15:19:33;97993.34;;;23.55;55.70
56414;BME280;42318;48.452;19.526;2022-09-09T15:27:03;97989.28;;;23.47;55.69
56414;BME280;42318;48.452;19.526;2022-09-09T15:34:34;97990.09;;;23.48;56.16
56414;BME280;42318;48.452;19.526;2022-09-09T15:42:05;97996.69;;;23.47;55.96
56414;BME280;42318;48.452;19.526;2022-09-09T15:49:38;98010.94;;;23.44;56.27
56414;BME280;42318;48.452;19.526;2022-09-09T15:57:12;98004.66;;;23.43;56.12
56414;BME280;42318;48.452;19.526;2022-09-09T16:04:43;98012.03;;;23.43;56.46
56414;BME280;42318;48.452;19.526;2022-09-09T16:12:14;98022.41;;;23.41;56.53
56414;BME280;42318;48.452;19.526;2022-09-09T16:19:45;98037.19;;;23.40;56.44
56414;BME280;42318;48.452;19.526;2022-09-09T16:27:16;98029.28;;;23.38;56.26
56414;BME280;42318;48.452;19.526;2022-09-09T16:34:47;98019.75;;;23.36;56.62
56414;BME280;42318;48.452;19.526;2022-09-09T16:42:17;98016.47;;;23.34;56.83
56414;BME280;42318;48.452;19.526;2022-09-09T16:49:48;98024.97;;;23.32;56.46
56414;BME280;42318;48.452;19.526;2022-09-09T16:57:19;98019.50;;;23.32;56.64
56414;BME280;42318;48.452;19.526;2022-09-09T17:04:50;98035.09;;;23.32;56.46
56414;BME280;42318;48.452;19.526;2022-09-09T17:12:21;98046.31;;;23.30;56.81
56414;BME280;42318;48.452;19.526;2022-09-09T17:19:52;98060.47;;;23.37;56.82
56414;BME280;42318;48.452;19.526;2022-09-09T17:27:23;98068.59;;;23.47;56.44
56414;BME280;42318;48.452;19.526;2022-09-09T17:34:54;98089.88;;;23.56;56.39
56414;BME280;42318;48.452;19.526;2022-09-09T17:42:26;98080.50;;;23.62;56.29
56414;BME280;42318;48.452;19.526;2022-09-09T17:49:57;98088.66;;;23.67;56.10
56414;BME280;42318;48.452;19.526;2022-09-09T17:57:27;98096.28;;;23.70;56.18
56414;BME280;42318;48.452;19.526;2022-09-09T18:04:58;98106.88;;;23.76;55.55
56414;BME280;42318;48.452;19.526;2022-09-09T18:12:29;98119.16;;;23.79;55.77
56414;BME280;42318;48.452;19.526;2022-09-09T18:20:00;98129.53;;;23.82;55.81
56414;BME280;42318;48.452;19.526;2022-09-09T18:27:31;98140.19;;;23.84;55.83
56414;BME280;42318;48.452;19.526;2022-09-09T18:35:02;98129.78;;;23.86;55.59
56414;BME280;42318;48.452;19.526;2022-09-09T18:42:32;98116.09;;;23.86;55.36
56414;BME280;42318;48.452;19.526;2022-09-09T18:50:03;98108.72;;;23.86;55.58
56414;BME280;42318;48.452;19.526;2022-09-09T18:57:35;98115.75;;;23.92;55.47
56414;BME280;42318;48.452;19.526;2022-09-09T19:05:06;98108.66;;;23.91;55.68
56414;BME280;42318;48.452;19.526;2022-09-09T19:12:37;98119.88;;;23.90;55.59
56414;BME280;42318;48.452;19.526;2022-09-09T19:20:08;98113.31;;;23.91;55.54
56414;BME280;42318;48.452;19.526;2022-09-09T19:27:39;98117.69;;;23.92;55.70
56414;BME280;42318;48.452;19.526;2022-09-09T19:35:10;98116.28;;;23.94;55.36
56414;BME280;42318;48.452;19.526;2022-09-09T19:42:41;98106.44;;;23.93;55.64
56414;BME280;42318;48.452;19.526;2022-09-09T19:50:12;98097.94;;;23.95;55.51
56414;BME280;42318;48.452;19.526;2022-09-09T19:57:42;98092.75;;;23.93;55.32
56414;BME280;42318;48.452;19.526;2022-09-09T20:05:13;98098.47;;;23.97;55.68
56414;BME280;42318;48.452;19.526;2022-09-09T20:12:44;98082.06;;;23.97;55.72
56414;BME280;42318;48.452;19.526;2022-09-09T20:20:15;98100.91;;;23.98;55.32
56414;BME280;42318;48.452;19.526;2022-09-09T20:27:45;98115.41;;;23.99;55.73
56414;BME280;42318;48.452;19.526;2022-09-09T20:35:16;98098.19;;;23.98;55.74
56414;BME280;42318;48.452;19.526;2022-09-09T20:42:47;98080.88;;;24.03;55.32
56414;BME280;42318;48.452;19.526;2022-09-09T20:50:18;98083.38;;;23.99;55.71
56414;BME280;42318;48.452;19.526;2022-09-09T20:57:48;98079.53;;;24.00;55.67
56414;BME280;42318;48.452;19.526;2022-09-09T21:05:21;98085.59;;;23.97;55.63
56414;BME280;42318;48.452;19.526;2022-09-09T21:12:51;98097.59;;;24.01;55.34
56414;BME280;42318;48.452;19.526;2022-09-09T21:20:23;98091.81;;;24.03;55.52
56414;BME280;42318;48.452;19.526;2022-09-09T21:27:54;98079.53;;;24.00;55.38
56414;BME280;42318;48.452;19.526;2022-09-09T21:35:25;98087.22;;;23.98;55.54
56414;BME280;42318;48.452;19.526;2022-09-09T21:42:55;98086.41;;;23.98;55.19
56414;BME280;42318;48.452;19.526;2022-09-09T21:50:26;98079.53;;;24.00;55.57
56414;BME280;42318;48.452;19.526;2022-09-09T21:57:57;98068.31;;;24.02;55.52
56414;BME280;42318;48.452;19.526;2022-09-09T22:05:30;98068.81;;;24.04;55.20
56414;BME280;42318;48.452;19.526;2022-09-09T22:13:00;98052.69;;;24.02;55.31
56414;BME280;42318;48.452;19.526;2022-09-09T22:20:32;98051.38;;;24.00;55.19
56414;BME280;42318;48.452;19.526;2022-09-09T22:28:06;98052.47;;;23.99;55.11
56414;BME280;42318;48.452;19.526;2022-09-09T22:35:41;98053.56;;;23.98;55.52
56414;BME280;42318;48.452;19.526;2022-09-09T22:43:14;98036.34;;;23.97;55.20
56414;BME280;42318;48.452;19.526;2022-09-09T22:50:45;98034.66;;;24.01;55.12
56414;BME280;42318;48.452;19.526;2022-09-09T22:58:16;98014.69;;;24.01;55.23
56414;BME280;42318;48.452;19.526;2022-09-09T23:05:58;98021.25;;;24.00;54.99
56414;BME280;42318;48.452;19.526;2022-09-09T23:13:29;98017.78;;;23.94;55.10
56414;BME280;42318;48.452;19.526;2022-09-09T23:21:01;97997.00;;;23.93;55.07
56414;BME280;42318;48.452;19.526;2022-09-09T23:28:34;97998.09;;;23.92;55.58
56414;BME280;42318;48.452;19.526;2022-09-09T23:36:07;98004.31;;;23.98;55.22
56414;BME280;42318;48.452;19.526;2022-09-09T23:43:38;97998.56;;;23.99;55.28
56414;BME280;42318;48.452;19.526;2022-09-09T23:51:11;98003.72;;;24.01;55.05
56414;BME280;42318;48.452;19.526;2022-09-09T23:58:48;98002.47;;;23.93;54.90
